KMIA

Miami International Airport

Miami, Florida, USA
METAR KMIA 221953Z 07008KT 10SM -RA SCT030 BKN047 BKN065 OVC200 25/23 A3006 RMK AO2 RAE30B47 SLP179 P0001 T02500228
Observed Flight Rules
Oct-22 @ 19:53 UTC (56 minutes ago) Visual Flight Rules
Wind Visibility Clouds Conditions
70° at 8 knots 10 miles
  • Scattered at 3,000' AGL
  • Broken at 4,700' AGL
  • Broken at 6,500' AGL
  • Overcast at 20,000' AGL
  • Light Rain
Temperatures Readings Precipitation
Current 25°C / 77°F
Dewpoint 23°C / 73°F
Humidity 89%
Altimeter 30.06" Hg
Pressure 1017.9 hPa
Elevation 3
Current Rain 0.01
METAR KMIA 221953Z 07008KT 10SM -RA SCT030 BKN047 BKN065 OVC200 25/23 A3006 RMK AO2 RAE30B47 SLP179 P0001 T02500228
Observed Flight Rules
Oct-22 @ 19:53 UTC
(56 minutes ago)
VFR
Wind Visibility
70° at 8 knots 10 miles
Clouds
  • Scattered at 3,000' AGL
  • Broken at 4,700' AGL
  • Broken at 6,500' AGL
  • Overcast at 20,000' AGL
Conditions
  • Light Rain
Temperature Dewpoint
25°C / 77°F 23°C / 73°F
Humidity Altimeter Pressure
89% 30.06" Hg 1017.9 hPa
Current Rain
0.01